sensor_id;sensor_type;location;lat;lon;timestamp;P1;durP1;ratioP1;P2;durP2;ratioP2
44462;SDS011;30170;52.190;8.702;2022-12-20T00:01:50;10.07;;;6.43;;
44462;SDS011;30170;52.190;8.702;2022-12-20T00:04:20;10.15;;;5.70;;
44462;SDS011;30170;52.190;8.702;2022-12-20T00:06:49;8.23;;;5.65;;
44462;SDS011;30170;52.190;8.702;2022-12-20T00:09:19;8.35;;;5.35;;
44462;SDS011;30170;52.190;8.702;2022-12-20T00:11:46;9.43;;;5.72;;
44462;SDS011;30170;52.190;8.702;2022-12-20T00:14:14;9.52;;;5.93;;
44462;SDS011;30170;52.190;8.702;2022-12-20T00:16:49;9.02;;;5.72;;
44462;SDS011;30170;52.190;8.702;2022-12-20T00:19:16;9.25;;;5.97;;
44462;SDS011;30170;52.190;8.702;2022-12-20T00:21:43;10.25;;;5.70;;
44462;SDS011;30170;52.190;8.702;2022-12-20T00:24:10;10.48;;;6.07;;
44462;SDS011;30170;52.190;8.702;2022-12-20T00:26:37;7.53;;;5.60;;
44462;SDS011;30170;52.190;8.702;2022-12-20T00:29:07;7.68;;;4.75;;
44462;SDS011;30170;52.190;8.702;2022-12-20T00:31:34;9.63;;;6.25;;
44462;SDS011;30170;52.190;8.702;2022-12-20T00:34:01;9.75;;;5.60;;
44462;SDS011;30170;52.190;8.702;2022-12-20T00:36:29;9.07;;;5.93;;
44462;SDS011;30170;52.190;8.702;2022-12-20T00:39:00;7.57;;;4.95;;
44462;SDS011;30170;52.190;8.702;2022-12-20T00:41:28;9.15;;;5.57;;
44462;SDS011;30170;52.190;8.702;2022-12-20T00:44:01;9.77;;;5.97;;
44462;SDS011;30170;52.190;8.702;2022-12-20T00:46:29;8.18;;;5.25;;
44462;SDS011;30170;52.190;8.702;2022-12-20T00:48:57;8.40;;;5.40;;
44462;SDS011;30170;52.190;8.702;2022-12-20T00:51:26;10.57;;;5.35;;
44462;SDS011;30170;52.190;8.702;2022-12-20T00:53:57;8.77;;;5.22;;
44462;SDS011;30170;52.190;8.702;2022-12-20T00:56:24;8.95;;;5.70;;
44462;SDS011;30170;52.190;8.702;2022-12-20T00:58:51;8.60;;;5.15;;
44462;SDS011;30170;52.190;8.702;2022-12-20T01:01:28;10.20;;;5.53;;
44462;SDS011;30170;52.190;8.702;2022-12-20T01:03:57;9.18;;;6.20;;
44462;SDS011;30170;52.190;8.702;2022-12-20T01:06:28;9.50;;;5.25;;
44462;SDS011;30170;52.190;8.702;2022-12-20T01:08:58;10.82;;;4.95;;
44462;SDS011;30170;52.190;8.702;2022-12-20T01:11:31;6.47;;;4.47;;
44462;SDS011;30170;52.190;8.702;2022-12-20T01:14:05;8.75;;;4.38;;
44462;SDS011;30170;52.190;8.702;2022-12-20T01:16:41;7.63;;;4.70;;
44462;SDS011;30170;52.190;8.702;2022-12-20T01:19:14;7.32;;;4.72;;
44462;SDS011;30170;52.190;8.702;2022-12-20T01:21:45;8.48;;;4.75;;
44462;SDS011;30170;52.190;8.702;2022-12-20T01:24:13;10.15;;;4.78;;
44462;SDS011;30170;52.190;8.702;2022-12-20T01:26:42;8.25;;;4.57;;
44462;SDS011;30170;52.190;8.702;2022-12-20T01:29:17;6.68;;;4.80;;
44462;SDS011;30170;52.190;8.702;2022-12-20T01:31:47;8.13;;;4.80;;
44462;SDS011;30170;52.190;8.702;2022-12-20T01:34:14;7.47;;;4.47;;
44462;SDS011;30170;52.190;8.702;2022-12-20T01:36:42;6.82;;;4.72;;
44462;SDS011;30170;52.190;8.702;2022-12-20T01:39:13;10.60;;;4.80;;
44462;SDS011;30170;52.190;8.702;2022-12-20T01:41:42;8.07;;;5.38;;
44462;SDS011;30170;52.190;8.702;2022-12-20T01:46:45;7.68;;;4.50;;
44462;SDS011;30170;52.190;8.702;2022-12-20T01:49:27;6.68;;;4.38;;
44462;SDS011;30170;52.190;8.702;2022-12-20T01:54:40;7.35;;;4.75;;
44462;SDS011;30170;52.190;8.702;2022-12-20T01:57:39;12.25;;;5.60;;
44462;SDS011;30170;52.190;8.702;2022-12-20T02:00:14;11.63;;;5.35;;
44462;SDS011;30170;52.190;8.702;2022-12-20T02:02:47;9.80;;;5.47;;
44462;SDS011;30170;52.190;8.702;2022-12-20T02:05:19;9.20;;;4.88;;
44462;SDS011;30170;52.190;8.702;2022-12-20T02:07:53;8.45;;;5.40;;
44462;SDS011;30170;52.190;8.702;2022-12-20T02:10:22;8.48;;;5.07;;
44462;SDS011;30170;52.190;8.702;2022-12-20T02:13:03;8.82;;;5.30;;
44462;SDS011;30170;52.190;8.702;2022-12-20T02:26:46;9.52;;;5.30;;
44462;SDS011;30170;52.190;8.702;2022-12-20T02:29:32;9.57;;;5.47;;
44462;SDS011;30170;52.190;8.702;2022-12-20T02:32:25;8.52;;;5.80;;
44462;SDS011;30170;52.190;8.702;2022-12-20T02:35:00;11.40;;;5.82;;
44462;SDS011;30170;52.190;8.702;2022-12-20T02:37:28;10.15;;;5.93;;
44462;SDS011;30170;52.190;8.702;2022-12-20T02:39:55;8.90;;;4.90;;
44462;SDS011;30170;52.190;8.702;2022-12-20T02:42:22;7.47;;;4.60;;
44462;SDS011;30170;52.190;8.702;2022-12-20T02:44:58;9.80;;;4.78;;
44462;SDS011;30170;52.190;8.702;2022-12-20T02:48:06;5.97;;;4.30;;
44462;SDS011;30170;52.190;8.702;2022-12-20T02:50:42;9.18;;;5.32;;
44462;SDS011;30170;52.190;8.702;2022-12-20T02:53:18;8.30;;;4.95;;
44462;SDS011;30170;52.190;8.702;2022-12-20T02:58:44;7.68;;;5.07;;
44462;SDS011;30170;52.190;8.702;2022-12-20T03:01:28;9.48;;;5.10;;
44462;SDS011;30170;52.190;8.702;2022-12-20T03:04:03;7.90;;;4.95;;
44462;SDS011;30170;52.190;8.702;2022-12-20T03:06:32;7.10;;;4.70;;
44462;SDS011;30170;52.190;8.702;2022-12-20T03:09:04;6.40;;;4.07;;
44462;SDS011;30170;52.190;8.702;2022-12-20T03:11:31;8.23;;;5.10;;
44462;SDS011;30170;52.190;8.702;2022-12-20T03:14:00;6.82;;;4.10;;
44462;SDS011;30170;52.190;8.702;2022-12-20T03:16:29;7.57;;;4.38;;
44462;SDS011;30170;52.190;8.702;2022-12-20T03:19:01;7.38;;;4.82;;
44462;SDS011;30170;52.190;8.702;2022-12-20T03:21:31;6.38;;;4.20;;
44462;SDS011;30170;52.190;8.702;2022-12-20T03:23:58;6.68;;;4.35;;
44462;SDS011;30170;52.190;8.702;2022-12-20T03:26:26;7.38;;;4.65;;
44462;SDS011;30170;52.190;8.702;2022-12-20T03:28:53;7.07;;;4.07;;
44462;SDS011;30170;52.190;8.702;2022-12-20T03:31:20;9.65;;;4.55;;
44462;SDS011;30170;52.190;8.702;2022-12-20T03:33:48;7.68;;;4.20;;
44462;SDS011;30170;52.190;8.702;2022-12-20T03:36:15;6.65;;;4.32;;
44462;SDS011;30170;52.190;8.702;2022-12-20T03:38:42;6.28;;;3.92;;
44462;SDS011;30170;52.190;8.702;2022-12-20T03:41:09;8.20;;;4.50;;
44462;SDS011;30170;52.190;8.702;2022-12-20T03:43:36;10.13;;;5.10;;
44462;SDS011;30170;52.190;8.702;2022-12-20T03:46:03;6.85;;;4.63;;
44462;SDS011;30170;52.190;8.702;2022-12-20T03:48:30;5.75;;;3.92;;
44462;SDS011;30170;52.190;8.702;2022-12-20T03:50:58;8.77;;;4.43;;
44462;SDS011;30170;52.190;8.702;2022-12-20T03:53:25;6.75;;;4.13;;
44462;SDS011;30170;52.190;8.702;2022-12-20T03:55:54;8.00;;;4.63;;
44462;SDS011;30170;52.190;8.702;2022-12-20T03:58:21;5.65;;;4.03;;
44462;SDS011;30170;52.190;8.702;2022-12-20T04:00:48;5.90;;;4.00;;
44462;SDS011;30170;52.190;8.702;2022-12-20T04:03:15;6.43;;;3.83;;
44462;SDS011;30170;52.190;8.702;2022-12-20T04:05:43;7.85;;;4.10;;
44462;SDS011;30170;52.190;8.702;2022-12-20T04:08:10;7.07;;;3.95;;
44462;SDS011;30170;52.190;8.702;2022-12-20T04:10:38;7.15;;;4.28;;
44462;SDS011;30170;52.190;8.702;2022-12-20T04:13:25;9.68;;;4.82;;
44462;SDS011;30170;52.190;8.702;2022-12-20T04:15:52;8.52;;;3.72;;
44462;SDS011;30170;52.190;8.702;2022-12-20T04:18:25;6.45;;;4.40;;
44462;SDS011;30170;52.190;8.702;2022-12-20T04:20:52;7.93;;;4.50;;
44462;SDS011;30170;52.190;8.702;2022-12-20T04:23:20;10.25;;;4.63;;
44462;SDS011;30170;52.190;8.702;2022-12-20T04:25:47;7.07;;;4.07;;
44462;SDS011;30170;52.190;8.702;2022-12-20T04:28:14;8.55;;;4.68;;
44462;SDS011;30170;52.190;8.702;2022-12-20T04:30:42;6.93;;;4.43;;
44462;SDS011;30170;52.190;8.702;2022-12-20T04:33:09;6.88;;;4.40;;
44462;SDS011;30170;52.190;8.702;2022-12-20T04:35:36;7.28;;;5.30;;
44462;SDS011;30170;52.190;8.702;2022-12-20T04:38:03;6.20;;;4.50;;
44462;SDS011;30170;52.190;8.702;2022-12-20T04:40:30;6.50;;;4.85;;
44462;SDS011;30170;52.190;8.702;2022-12-20T04:42:57;7.88;;;4.80;;
44462;SDS011;30170;52.190;8.702;2022-12-20T04:45:24;9.52;;;5.05;;
44462;SDS011;30170;52.190;8.702;2022-12-20T04:47:50;9.00;;;5.90;;
44462;SDS011;30170;52.190;8.702;2022-12-20T04:50:17;7.97;;;5.35;;
44462;SDS011;30170;52.190;8.702;2022-12-20T04:52:44;7.60;;;5.43;;
44462;SDS011;30170;52.190;8.702;2022-12-20T04:55:29;11.43;;;6.28;;
44462;SDS011;30170;52.190;8.702;2022-12-20T04:57:56;7.68;;;5.35;;
44462;SDS011;30170;52.190;8.702;2022-12-20T05:00:32;11.52;;;5.95;;
44462;SDS011;30170;52.190;8.702;2022-12-20T05:02:59;9.63;;;6.18;;
44462;SDS011;30170;52.190;8.702;2022-12-20T05:05:27;9.95;;;6.38;;
44462;SDS011;30170;52.190;8.702;2022-12-20T05:07:54;9.70;;;6.00;;
44462;SDS011;30170;52.190;8.702;2022-12-20T05:10:21;10.75;;;6.70;;
44462;SDS011;30170;52.190;8.702;2022-12-20T05:12:48;11.45;;;7.50;;
44462;SDS011;30170;52.190;8.702;2022-12-20T05:15:15;13.40;;;8.52;;
44462;SDS011;30170;52.190;8.702;2022-12-20T05:17:42;14.45;;;8.48;;
44462;SDS011;30170;52.190;8.702;2022-12-20T05:20:09;12.07;;;8.35;;
44462;SDS011;30170;52.190;8.702;2022-12-20T05:22:36;13.25;;;9.27;;
44462;SDS011;30170;52.190;8.702;2022-12-20T05:25:21;14.45;;;8.15;;
44462;SDS011;30170;52.190;8.702;2022-12-20T05:28:07;13.15;;;9.13;;
44462;SDS011;30170;52.190;8.702;2022-12-20T05:30:34;12.43;;;8.27;;
44462;SDS011;30170;52.190;8.702;2022-12-20T05:33:01;14.13;;;8.45;;
44462;SDS011;30170;52.190;8.702;2022-12-20T05:35:28;10.15;;;6.85;;
44462;SDS011;30170;52.190;8.702;2022-12-20T05:37:55;11.77;;;7.82;;
44462;SDS011;30170;52.190;8.702;2022-12-20T05:40:22;10.75;;;6.97;;
44462;SDS011;30170;52.190;8.702;2022-12-20T05:42:49;12.30;;;7.45;;
44462;SDS011;30170;52.190;8.702;2022-12-20T05:45:16;13.63;;;7.05;;
44462;SDS011;30170;52.190;8.702;2022-12-20T05:47:43;9.98;;;5.82;;
44462;SDS011;30170;52.190;8.702;2022-12-20T05:50:10;9.15;;;5.90;;
44462;SDS011;30170;52.190;8.702;2022-12-20T05:52:44;9.80;;;6.05;;
44462;SDS011;30170;52.190;8.702;2022-12-20T05:55:10;9.75;;;6.13;;
44462;SDS011;30170;52.190;8.702;2022-12-20T06:00:52;10.55;;;6.18;;
44462;SDS011;30170;52.190;8.702;2022-12-20T06:03:35;10.85;;;6.07;;
44462;SDS011;30170;52.190;8.702;2022-12-20T06:06:13;9.82;;;6.25;;
44462;SDS011;30170;52.190;8.702;2022-12-20T06:08:50;11.63;;;6.20;;
44462;SDS011;30170;52.190;8.702;2022-12-20T07:15:42;11.20;;;6.78;;
44462;SDS011;30170;52.190;8.702;2022-12-20T07:18:09;12.38;;;7.03;;
44462;SDS011;30170;52.190;8.702;2022-12-20T07:20:36;11.38;;;6.15;;
44462;SDS011;30170;52.190;8.702;2022-12-20T07:23:03;10.75;;;6.78;;
44462;SDS011;30170;52.190;8.702;2022-12-20T07:25:31;9.77;;;6.40;;
44462;SDS011;30170;52.190;8.702;2022-12-20T07:27:58;10.88;;;6.50;;
44462;SDS011;30170;52.190;8.702;2022-12-20T07:30:24;10.02;;;6.78;;
44462;SDS011;30170;52.190;8.702;2022-12-20T07:32:51;9.38;;;6.13;;
44462;SDS011;30170;52.190;8.702;2022-12-20T07:35:18;11.18;;;6.68;;
44462;SDS011;30170;52.190;8.702;2022-12-20T07:37:45;10.38;;;6.15;;
44462;SDS011;30170;52.190;8.702;2022-12-20T07:40:12;8.80;;;6.40;;
44462;SDS011;30170;52.190;8.702;2022-12-20T07:42:40;10.10;;;6.18;;
44462;SDS011;30170;52.190;8.702;2022-12-20T07:45:14;9.93;;;6.05;;
44462;SDS011;30170;52.190;8.702;2022-12-20T07:47:41;11.20;;;6.35;;
44462;SDS011;30170;52.190;8.702;2022-12-20T07:50:09;8.80;;;5.57;;
44462;SDS011;30170;52.190;8.702;2022-12-20T07:52:36;9.43;;;5.63;;
44462;SDS011;30170;52.190;8.702;2022-12-20T07:55:07;9.18;;;5.93;;
44462;SDS011;30170;52.190;8.702;2022-12-20T07:57:46;10.68;;;5.82;;
44462;SDS011;30170;52.190;8.702;2022-12-20T08:00:18;9.37;;;6.00;;
44462;SDS011;30170;52.190;8.702;2022-12-20T08:02:46;10.00;;;5.55;;
44462;SDS011;30170;52.190;8.702;2022-12-20T08:05:20;10.88;;;6.55;;
44462;SDS011;30170;52.190;8.702;2022-12-20T08:07:47;9.82;;;6.75;;
44462;SDS011;30170;52.190;8.702;2022-12-20T08:10:26;10.20;;;6.03;;
44462;SDS011;30170;52.190;8.702;2022-12-20T08:12:54;9.13;;;5.80;;
44462;SDS011;30170;52.190;8.702;2022-12-20T08:15:22;9.82;;;6.32;;
44462;SDS011;30170;52.190;8.702;2022-12-20T08:17:49;13.20;;;7.20;;
44462;SDS011;30170;52.190;8.702;2022-12-20T08:20:18;10.10;;;6.45;;
44462;SDS011;30170;52.190;8.702;2022-12-20T08:22:45;11.57;;;6.35;;
44462;SDS011;30170;52.190;8.702;2022-12-20T08:25:12;12.40;;;6.75;;
44462;SDS011;30170;52.190;8.702;2022-12-20T08:27:39;9.48;;;6.85;;
44462;SDS011;30170;52.190;8.702;2022-12-20T08:30:06;14.73;;;8.73;;
44462;SDS011;30170;52.190;8.702;2022-12-20T08:32:37;12.52;;;7.40;;
44462;SDS011;30170;52.190;8.702;2022-12-20T08:35:04;12.18;;;7.40;;
44462;SDS011;30170;52.190;8.702;2022-12-20T08:37:32;10.20;;;6.25;;
44462;SDS011;30170;52.190;8.702;2022-12-20T08:39:59;13.68;;;7.60;;
44462;SDS011;30170;52.190;8.702;2022-12-20T08:42:26;11.88;;;7.93;;
44462;SDS011;30170;52.190;8.702;2022-12-20T08:44:54;10.70;;;7.30;;
44462;SDS011;30170;52.190;8.702;2022-12-20T08:47:21;9.55;;;6.55;;
44462;SDS011;30170;52.190;8.702;2022-12-20T08:49:48;11.05;;;7.68;;
44462;SDS011;30170;52.190;8.702;2022-12-20T08:52:14;12.02;;;7.57;;
44462;SDS011;30170;52.190;8.702;2022-12-20T08:54:41;18.83;;;8.13;;
44462;SDS011;30170;52.190;8.702;2022-12-20T08:57:08;11.38;;;7.35;;
44462;SDS011;30170;52.190;8.702;2022-12-20T08:59:35;11.10;;;7.15;;
44462;SDS011;30170;52.190;8.702;2022-12-20T09:02:02;12.30;;;7.50;;
44462;SDS011;30170;52.190;8.702;2022-12-20T09:04:29;10.82;;;6.70;;
44462;SDS011;30170;52.190;8.702;2022-12-20T09:06:56;11.45;;;7.28;;
44462;SDS011;30170;52.190;8.702;2022-12-20T09:09:23;9.52;;;6.80;;
44462;SDS011;30170;52.190;8.702;2022-12-20T09:11:50;11.75;;;7.80;;
44462;SDS011;30170;52.190;8.702;2022-12-20T09:17:20;13.13;;;7.85;;
44462;SDS011;30170;52.190;8.702;2022-12-20T09:19:57;12.82;;;8.10;;
44462;SDS011;30170;52.190;8.702;2022-12-20T09:30:45;11.48;;;7.35;;
44462;SDS011;30170;52.190;8.702;2022-12-20T09:33:13;11.77;;;7.10;;
44462;SDS011;30170;52.190;8.702;2022-12-20T09:35:43;10.60;;;6.97;;
44462;SDS011;30170;52.190;8.702;2022-12-20T09:38:13;10.43;;;6.45;;
44462;SDS011;30170;52.190;8.702;2022-12-20T09:40:47;9.85;;;6.47;;
44462;SDS011;30170;52.190;8.702;2022-12-20T09:43:16;10.95;;;6.47;;
44462;SDS011;30170;52.190;8.702;2022-12-20T09:45:44;10.93;;;6.85;;
44462;SDS011;30170;52.190;8.702;2022-12-20T09:48:20;9.18;;;5.82;;
44462;SDS011;30170;52.190;8.702;2022-12-20T09:53:52;9.68;;;6.15;;
44462;SDS011;30170;52.190;8.702;2022-12-20T09:59:19;8.52;;;4.53;;
44462;SDS011;30170;52.190;8.702;2022-12-20T10:01:47;7.45;;;4.53;;
44462;SDS011;30170;52.190;8.702;2022-12-20T10:04:20;7.82;;;4.88;;
44462;SDS011;30170;52.190;8.702;2022-12-20T10:09:45;8.38;;;5.40;;
44462;SDS011;30170;52.190;8.702;2022-12-20T10:15:24;8.25;;;5.55;;
44462;SDS011;30170;52.190;8.702;2022-12-20T10:21:07;12.15;;;4.95;;
44462;SDS011;30170;52.190;8.702;2022-12-20T10:24:00;6.75;;;4.28;;
44462;SDS011;30170;52.190;8.702;2022-12-20T10:26:50;6.75;;;4.40;;
44462;SDS011;30170;52.190;8.702;2022-12-20T10:29:18;7.75;;;4.68;;
44462;SDS011;30170;52.190;8.702;2022-12-20T10:31:52;7.38;;;4.85;;
44462;SDS011;30170;52.190;8.702;2022-12-20T10:34:23;8.85;;;4.32;;
44462;SDS011;30170;52.190;8.702;2022-12-20T10:37:11;7.38;;;4.50;;
44462;SDS011;30170;52.190;8.702;2022-12-20T10:39:48;6.75;;;4.13;;
44462;SDS011;30170;52.190;8.702;2022-12-20T10:42:24;6.82;;;4.63;;
44462;SDS011;30170;52.190;8.702;2022-12-20T10:44:58;8.25;;;4.68;;
44462;SDS011;30170;52.190;8.702;2022-12-20T10:47:32;7.20;;;4.72;;
44462;SDS011;30170;52.190;8.702;2022-12-20T10:50:27;7.97;;;5.38;;
44462;SDS011;30170;52.190;8.702;2022-12-20T10:55:34;9.55;;;5.30;;
44462;SDS011;30170;52.190;8.702;2022-12-20T10:58:05;8.75;;;5.13;;
44462;SDS011;30170;52.190;8.702;2022-12-20T11:00:42;6.93;;;4.45;;
44462;SDS011;30170;52.190;8.702;2022-12-20T11:03:20;8.95;;;5.10;;
44462;SDS011;30170;52.190;8.702;2022-12-20T11:05:56;6.95;;;4.82;;
44462;SDS011;30170;52.190;8.702;2022-12-20T11:08:31;6.57;;;4.78;;
44462;SDS011;30170;52.190;8.702;2022-12-20T11:11:15;6.95;;;4.63;;
44462;SDS011;30170;52.190;8.702;2022-12-20T11:13:48;6.50;;;4.07;;
44462;SDS011;30170;52.190;8.702;2022-12-20T11:27:41;6.03;;;3.50;;
44462;SDS011;30170;52.190;8.702;2022-12-20T11:30:14;4.30;;;3.33;;
44462;SDS011;30170;52.190;8.702;2022-12-20T11:41:58;6.03;;;3.67;;
44462;SDS011;30170;52.190;8.702;2022-12-20T11:53:15;6.78;;;4.20;;
44462;SDS011;30170;52.190;8.702;2022-12-20T11:55:46;6.78;;;4.60;;
44462;SDS011;30170;52.190;8.702;2022-12-20T11:58:31;7.00;;;3.90;;
44462;SDS011;30170;52.190;8.702;2022-12-20T12:01:27;7.80;;;4.22;;
44462;SDS011;30170;52.190;8.702;2022-12-20T12:04:09;6.97;;;4.68;;
44462;SDS011;30170;52.190;8.702;2022-12-20T12:06:44;6.05;;;3.85;;
44462;SDS011;30170;52.190;8.702;2022-12-20T12:12:25;6.07;;;3.88;;
44462;SDS011;30170;52.190;8.702;2022-12-20T12:19:06;5.97;;;4.32;;
44462;SDS011;30170;52.190;8.702;2022-12-20T12:22:19;6.35;;;3.83;;
44462;SDS011;30170;52.190;8.702;2022-12-20T12:25:04;5.28;;;3.53;;
44462;SDS011;30170;52.190;8.702;2022-12-20T12:27:40;5.28;;;3.60;;
44462;SDS011;30170;52.190;8.702;2022-12-20T12:30:12;6.05;;;3.88;;
44462;SDS011;30170;52.190;8.702;2022-12-20T12:32:42;6.93;;;3.85;;
44462;SDS011;30170;52.190;8.702;2022-12-20T12:35:44;7.13;;;4.05;;
44462;SDS011;30170;52.190;8.702;2022-12-20T12:45:45;7.20;;;3.60;;
44462;SDS011;30170;52.190;8.702;2022-12-20T12:50:58;6.30;;;3.78;;
44462;SDS011;30170;52.190;8.702;2022-12-20T12:53:45;6.75;;;3.30;;
44462;SDS011;30170;52.190;8.702;2022-12-20T13:13:00;5.93;;;3.58;;
44462;SDS011;30170;52.190;8.702;2022-12-20T13:20:34;4.65;;;3.30;;
44462;SDS011;30170;52.190;8.702;2022-12-20T13:25:49;10.40;;;3.45;;
44462;SDS011;30170;52.190;8.702;2022-12-20T13:33:37;5.80;;;3.75;;
44462;SDS011;30170;52.190;8.702;2022-12-20T13:41:20;6.15;;;4.13;;
44462;SDS011;30170;52.190;8.702;2022-12-20T13:46:46;5.45;;;3.38;;
44462;SDS011;30170;52.190;8.702;2022-12-20T13:49:36;6.55;;;4.20;;
44462;SDS011;30170;52.190;8.702;2022-12-20T13:54:58;8.70;;;4.50;;
44462;SDS011;30170;52.190;8.702;2022-12-20T14:00:34;6.40;;;3.60;;
44462;SDS011;30170;52.190;8.702;2022-12-20T14:03:18;8.45;;;3.90;;
44462;SDS011;30170;52.190;8.702;2022-12-20T14:05:49;7.10;;;3.70;;
44462;SDS011;30170;52.190;8.702;2022-12-20T14:08:25;5.65;;;3.97;;
44462;SDS011;30170;52.190;8.702;2022-12-20T14:11:25;6.07;;;4.03;;
44462;SDS011;30170;52.190;8.702;2022-12-20T14:13:54;6.95;;;3.45;;
44462;SDS011;30170;52.190;8.702;2022-12-20T14:16:28;6.82;;;3.92;;
44462;SDS011;30170;52.190;8.702;2022-12-20T14:19:41;4.93;;;3.33;;
44462;SDS011;30170;52.190;8.702;2022-12-20T14:25:37;5.65;;;3.60;;
44462;SDS011;30170;52.190;8.702;2022-12-20T14:28:17;6.20;;;3.95;;
44462;SDS011;30170;52.190;8.702;2022-12-20T14:31:03;7.93;;;4.68;;
44462;SDS011;30170;52.190;8.702;2022-12-20T14:36:18;6.70;;;3.90;;
44462;SDS011;30170;52.190;8.702;2022-12-20T14:38:49;6.82;;;4.90;;
44462;SDS011;30170;52.190;8.702;2022-12-20T14:44:15;4.43;;;3.63;;
44462;SDS011;30170;52.190;8.702;2022-12-20T14:46:46;8.40;;;3.93;;
44462;SDS011;30170;52.190;8.702;2022-12-20T14:49:23;5.82;;;3.55;;
44462;SDS011;30170;52.190;8.702;2022-12-20T14:51:51;6.82;;;3.97;;
44462;SDS011;30170;52.190;8.702;2022-12-20T14:54:32;5.38;;;3.97;;
44462;SDS011;30170;52.190;8.702;2022-12-20T14:57:23;6.63;;;3.88;;
44462;SDS011;30170;52.190;8.702;2022-12-20T15:10:47;8.35;;;3.50;;
44462;SDS011;30170;52.190;8.702;2022-12-20T15:13:21;6.88;;;3.55;;
44462;SDS011;30170;52.190;8.702;2022-12-20T15:16:00;4.80;;;3.10;;
44462;SDS011;30170;52.190;8.702;2022-12-20T15:18:31;6.28;;;3.10;;
44462;SDS011;30170;52.190;8.702;2022-12-20T15:21:02;5.20;;;3.15;;
44462;SDS011;30170;52.190;8.702;2022-12-20T15:23:53;6.93;;;2.92;;
44462;SDS011;30170;52.190;8.702;2022-12-20T15:27:15;6.15;;;3.30;;
44462;SDS011;30170;52.190;8.702;2022-12-20T15:29:51;6.38;;;3.38;;
44462;SDS011;30170;52.190;8.702;2022-12-20T15:35:33;9.38;;;3.63;;
44462;SDS011;30170;52.190;8.702;2022-12-20T15:41:34;6.38;;;4.00;;
44462;SDS011;30170;52.190;8.702;2022-12-20T15:44:15;6.15;;;4.03;;
44462;SDS011;30170;52.190;8.702;2022-12-20T15:46:50;5.70;;;4.07;;
44462;SDS011;30170;52.190;8.702;2022-12-20T15:49:19;6.53;;;4.20;;
44462;SDS011;30170;52.190;8.702;2022-12-20T15:51:51;4.85;;;3.65;;
44462;SDS011;30170;52.190;8.702;2022-12-20T15:57:18;7.25;;;4.47;;
44462;SDS011;30170;52.190;8.702;2022-12-20T15:59:46;9.35;;;4.78;;
44462;SDS011;30170;52.190;8.702;2022-12-20T18:08:10;17.50;;;11.13;;
44462;SDS011;30170;52.190;8.702;2022-12-20T18:10:37;23.58;;;11.52;;
44462;SDS011;30170;52.190;8.702;2022-12-20T18:13:04;24.25;;;12.43;;
44462;SDS011;30170;52.190;8.702;2022-12-20T18:15:31;16.00;;;11.05;;
44462;SDS011;30170;52.190;8.702;2022-12-20T18:17:58;20.73;;;11.40;;
44462;SDS011;30170;52.190;8.702;2022-12-20T18:20:25;18.17;;;11.57;;
44462;SDS011;30170;52.190;8.702;2022-12-20T18:22:52;18.45;;;11.65;;
44462;SDS011;30170;52.190;8.702;2022-12-20T18:25:19;18.63;;;10.98;;
44462;SDS011;30170;52.190;8.702;2022-12-20T18:27:52;18.27;;;12.27;;
44462;SDS011;30170;52.190;8.702;2022-12-20T18:30:19;20.27;;;11.88;;
44462;SDS011;30170;52.190;8.702;2022-12-20T18:32:46;21.77;;;11.65;;
44462;SDS011;30170;52.190;8.702;2022-12-20T18:35:13;20.88;;;11.98;;
44462;SDS011;30170;52.190;8.702;2022-12-20T18:37:40;19.67;;;11.82;;
44462;SDS011;30170;52.190;8.702;2022-12-20T18:40:07;19.33;;;11.52;;
44462;SDS011;30170;52.190;8.702;2022-12-20T18:42:34;18.80;;;11.52;;
44462;SDS011;30170;52.190;8.702;2022-12-20T18:45:49;21.83;;;12.05;;
44462;SDS011;30170;52.190;8.702;2022-12-20T18:48:30;22.85;;;11.85;;
44462;SDS011;30170;52.190;8.702;2022-12-20T18:51:10;17.25;;;11.75;;
44462;SDS011;30170;52.190;8.702;2022-12-20T18:53:43;22.42;;;13.50;;
44462;SDS011;30170;52.190;8.702;2022-12-20T18:56:27;20.23;;;12.93;;
44462;SDS011;30170;52.190;8.702;2022-12-20T18:58:56;20.48;;;12.82;;
44462;SDS011;30170;52.190;8.702;2022-12-20T19:01:35;28.35;;;16.20;;
44462;SDS011;30170;52.190;8.702;2022-12-20T19:07:52;21.40;;;13.13;;
44462;SDS011;30170;52.190;8.702;2022-12-20T19:10:19;22.10;;;12.43;;
44462;SDS011;30170;52.190;8.702;2022-12-20T19:12:46;19.23;;;12.15;;
44462;SDS011;30170;52.190;8.702;2022-12-20T19:15:13;20.85;;;11.32;;
44462;SDS011;30170;52.190;8.702;2022-12-20T19:17:40;19.60;;;11.48;;
44462;SDS011;30170;52.190;8.702;2022-12-20T19:20:07;17.02;;;11.90;;
44462;SDS011;30170;52.190;8.702;2022-12-20T19:22:34;17.35;;;11.45;;
44462;SDS011;30170;52.190;8.702;2022-12-20T19:25:01;24.95;;;13.30;;
44462;SDS011;30170;52.190;8.702;2022-12-20T19:27:28;23.10;;;15.68;;
44462;SDS011;30170;52.190;8.702;2022-12-20T19:29:55;20.98;;;13.40;;
44462;SDS011;30170;52.190;8.702;2022-12-20T19:32:22;21.50;;;12.25;;
44462;SDS011;30170;52.190;8.702;2022-12-20T19:34:49;20.40;;;12.82;;
44462;SDS011;30170;52.190;8.702;2022-12-20T19:37:16;18.95;;;12.15;;
44462;SDS011;30170;52.190;8.702;2022-12-20T19:39:43;18.58;;;10.88;;
44462;SDS011;30170;52.190;8.702;2022-12-20T19:42:10;16.60;;;11.98;;
44462;SDS011;30170;52.190;8.702;2022-12-20T19:44:49;16.73;;;11.50;;
44462;SDS011;30170;52.190;8.702;2022-12-20T19:47:16;17.00;;;10.55;;
44462;SDS011;30170;52.190;8.702;2022-12-20T19:49:43;17.40;;;11.50;;
44462;SDS011;30170;52.190;8.702;2022-12-20T19:52:10;18.55;;;11.50;;
44462;SDS011;30170;52.190;8.702;2022-12-20T19:54:37;18.48;;;11.18;;
44462;SDS011;30170;52.190;8.702;2022-12-20T19:57:05;21.58;;;12.25;;
44462;SDS011;30170;52.190;8.702;2022-12-20T19:59:32;18.08;;;11.18;;
44462;SDS011;30170;52.190;8.702;2022-12-20T20:01:59;15.90;;;12.13;;
44462;SDS011;30170;52.190;8.702;2022-12-20T20:04:26;16.58;;;11.55;;
44462;SDS011;30170;52.190;8.702;2022-12-20T20:06:53;18.95;;;10.13;;
44462;SDS011;30170;52.190;8.702;2022-12-20T20:09:21;17.40;;;11.43;;
44462;SDS011;30170;52.190;8.702;2022-12-20T20:11:48;18.95;;;12.90;;
44462;SDS011;30170;52.190;8.702;2022-12-20T20:14:15;18.25;;;12.23;;
44462;SDS011;30170;52.190;8.702;2022-12-20T20:16:42;19.38;;;12.27;;
44462;SDS011;30170;52.190;8.702;2022-12-20T20:19:09;18.70;;;12.75;;
44462;SDS011;30170;52.190;8.702;2022-12-20T20:21:36;18.02;;;12.07;;
44462;SDS011;30170;52.190;8.702;2022-12-20T20:24:03;18.05;;;12.20;;
44462;SDS011;30170;52.190;8.702;2022-12-20T20:26:31;21.75;;;13.88;;
44462;SDS011;30170;52.190;8.702;2022-12-20T20:28:59;20.95;;;13.13;;
44462;SDS011;30170;52.190;8.702;2022-12-20T20:31:27;23.75;;;13.20;;
44462;SDS011;30170;52.190;8.702;2022-12-20T20:33:55;20.40;;;12.50;;
44462;SDS011;30170;52.190;8.702;2022-12-20T20:36:23;16.10;;;10.80;;
44462;SDS011;30170;52.190;8.702;2022-12-20T20:38:50;16.20;;;11.90;;
44462;SDS011;30170;52.190;8.702;2022-12-20T20:41:17;19.77;;;12.07;;
44462;SDS011;30170;52.190;8.702;2022-12-20T20:43:44;18.40;;;12.20;;
44462;SDS011;30170;52.190;8.702;2022-12-20T20:46:12;19.70;;;12.70;;
44462;SDS011;30170;52.190;8.702;2022-12-20T20:48:40;18.25;;;12.88;;
44462;SDS011;30170;52.190;8.702;2022-12-20T20:51:07;19.05;;;13.45;;
44462;SDS011;30170;52.190;8.702;2022-12-20T20:53:34;19.35;;;12.38;;
44462;SDS011;30170;52.190;8.702;2022-12-20T20:56:02;17.60;;;12.32;;
44462;SDS011;30170;52.190;8.702;2022-12-20T20:58:30;18.50;;;12.10;;
44462;SDS011;30170;52.190;8.702;2022-12-20T21:00:58;21.55;;;12.23;;
44462;SDS011;30170;52.190;8.702;2022-12-20T21:03:26;17.38;;;11.50;;
44462;SDS011;30170;52.190;8.702;2022-12-20T21:05:55;16.33;;;11.30;;
44462;SDS011;30170;52.190;8.702;2022-12-20T21:08:42;20.25;;;12.43;;
44462;SDS011;30170;52.190;8.702;2022-12-20T21:11:09;19.55;;;12.20;;